Armstrong, Iowa
Current Conditions -  °F | °C
As of 5:59 AM on Friday 19 Dec 2014 (Local Time) from KEST Reporting Station
Haze Haze  
Wind Chill: 18°   Ceiling: 400
Heat Index: 26°   Visibility: 4mi
Dew Point: 25°   Wind: 8mph
Humidity: 96%   Direction: 180°S
Pressure: 30.2"   Gusts: NA
Location:  43.4°N, 94.48°W
Report Text: KEST 191159Z AUTO 18007KT 4SM BR OVC004 M03/M04 A3020 RMK AO2 T10331039
Loading
Personal Weather Stations






























Interactive Weather Map New forecast layout! Learn more

10-Day Weather Forecast

Advertisements
Track Severe Weather on mobile